Wilson Clyde — 8PRV — position and weather

sailwx.info

Track history (hours):
 
Tides and Currents Weather Stations Pressure Air Temp Water Temp Dewpoint Dewpoint Depression Visibility Wind Speed Wind Dir Waves Ship Positions

Wilson Clyde

Last reported at 2014-Jul-30 02:08 UTC. Time now 2014-Jul-30 02:57 UTC.
Position N 54°13' E 009°35'.

Length 100 m; draft 6 m.

Type: Ship. MMSI: 314187000.

Date/timePositionNaut miles runAvg speedWind from/ knotsBaromVisibWave heightAir tempDewpointWater temp
2014-Jul-30 02:08N 54°13' E 009°35'5 8.7
2014-Jul-30 01:33N 54°10' E 009°27'8 7.8
2014-Jul-30 00:33N 54°04' E 009°19'6 6.3
2014-Jul-29 23:34N 53°58' E 009°16'6 6.4
2014-Jul-29 22:33N 53°54' E 009°09'2 1.8
2014-Jul-29 21:33N 53°53' E 009°06'8 7.7
2014-Jul-29 20:33N 53°50' E 008°53'8 7.6
2014-Jul-29 19:33N 53°54' E 008°42'8 8.0
2014-Jul-29 18:33N 53°58' E 008°30'9 8.8
2014-Jul-29 17:33N 53°60' E 008°16'8 8.5
2014-Jul-29 16:33N 53°58' E 008°01'11 9.4
2014-Jul-29 15:26N 53°56' E 007°44'6010.1
2014-Jul-29 09:32N 53°41' E 006°06'1111.5
2014-Jul-29 08:33N 53°37' E 005°48'1111.5
2014-Jul-29 07:33N 53°34' E 005°29'10 9.8
2014-Jul-29 06:33N 53°31' E 005°14'1010.3
2014-Jul-29 05:33N 53°27' E 004°58'1110.1
2014-Jul-29 04:31N 53°22' E 004°42'4010.0
2014-Jul-29 00:29N 52°45' E 004°15'9 9.8
2014-Jul-28 23:33N 52°36' E 004°20'9 9.5
2014-Jul-28 22:33N 52°28' E 004°28'5 5.2
2014-Jul-28 21:34N 52°28' E 004°37'7 6.7
2014-Jul-28 20:33N 52°25' E 004°46'1 0.7
2014-Jul-28 19:31N 52°24' E 004°47'0 0.0
2014-Jul-28 18:28N 52°24' E 004°47'0 0.0
2014-Jul-28 17:31N 52°24' E 004°47'0 0.0
2014-Jul-28 16:28N 52°24' E 004°47'0 0.0
2014-Jul-28 15:31N 52°24' E 004°47'0 0.0
2014-Jul-28 14:31N 52°24' E 004°47'0 0.0
2014-Jul-28 13:28N 52°24' E 004°47'0 0.0
2014-Jul-28 12:28N 52°24' E 004°47'0 0.0
2014-Jul-28 11:31N 52°24' E 004°47'0 0.0
2014-Jul-28 10:31N 52°24' E 004°47'0 0.0
2014-Jul-28 09:28N 52°24' E 004°47'0 0.0
2014-Jul-28 08:28N 52°24' E 004°47'0 0.0
2014-Jul-28 07:31N 52°24' E 004°47'0 0.0
2014-Jul-28 06:31N 52°24' E 004°47'0 0.0
2014-Jul-28 05:31N 52°24' E 004°47'0 0.0
2014-Jul-28 04:31N 52°24' E 004°47'0 0.0
2014-Jul-28 03:28N 52°24' E 004°47'0 0.0
2014-Jul-28 02:28N 52°24' E 004°47'0 0.0
2014-Jul-28 01:31N 52°24' E 004°47'0 0.0
2014-Jul-28 00:31N 52°24' E 004°47'0 0.0
2014-Jul-27 23:31N 52°24' E 004°47'0 0.0
2014-Jul-27 22:31N 52°24' E 004°47'0 0.0
2014-Jul-27 21:31N 52°24' E 004°47'0 0.0
2014-Jul-27 20:28N 52°24' E 004°47'0 0.0
2014-Jul-27 19:31N 52°24' E 004°47'0 0.0
2014-Jul-27 18:31N 52°24' E 004°47'0 0.0
2014-Jul-27 17:25N 52°24' E 004°47'0 0.0
2014-Jul-27 16:28N 52°24' E 004°47'0 0.0
2014-Jul-27 15:31N 52°24' E 004°47'0 0.0
2014-Jul-27 14:31N 52°24' E 004°47'0 0.0
2014-Jul-27 13:31N 52°24' E 004°47'0 0.0
2014-Jul-27 12:31N 52°24' E 004°47'0 0.0
2014-Jul-27 11:31N 52°24' E 004°47'0 0.0
2014-Jul-27 10:28N 52°24' E 004°47'0 0.0
2014-Jul-27 09:28N 52°24' E 004°47'0 0.0
2014-Jul-27 08:31N 52°24' E 004°47'0 0.0
2014-Jul-27 07:31N 52°24' E 004°47'0 0.0
2014-Jul-27 06:31N 52°24' E 004°47'0 0.0
2014-Jul-27 05:31N 52°24' E 004°47'0 0.0
2014-Jul-27 04:31N 52°24' E 004°47'0 0.0
2014-Jul-27 03:28N 52°24' E 004°47'0 0.0
2014-Jul-27 02:31N 52°24' E 004°47'0 0.0
2014-Jul-27 01:31N 52°24' E 004°47'0 0.0
2014-Jul-27 00:25N 52°24' E 004°47'0 0.0
2014-Jul-26 23:31N 52°24' E 004°47'0 0.0
2014-Jul-26 22:31N 52°24' E 004°47'0 0.0
2014-Jul-26 21:28N 52°24' E 004°47'0 0.0
2014-Jul-26 20:28N 52°24' E 004°47'0 0.0
2014-Jul-26 19:31N 52°24' E 004°47'0 0.0
2014-Jul-26 18:28N 52°24' E 004°47'0 0.0
2014-Jul-26 17:31N 52°24' E 004°47'0 0.0
2014-Jul-26 16:28N 52°24' E 004°47'0 0.0
2014-Jul-26 15:31N 52°24' E 004°47'0 0.0
2014-Jul-26 14:31N 52°24' E 004°47'0 0.0
2014-Jul-26 13:31N 52°24' E 004°47'0 0.0
2014-Jul-26 12:31N 52°24' E 004°47'0 0.3
2014-Jul-26 11:33N 52°24' E 004°47'7 7.4
2014-Jul-26 10:34N 52°28' E 004°36'7 6.7
2014-Jul-26 09:34N 52°28' E 004°25'1111.0
2014-Jul-26 08:34N 52°27' E 004°07'3 1.6
2014-Jul-26 06:21N 52°26' E 004°01'0 0.0
2014-Jul-26 05:03N 52°26' E 004°01'0 0.0
2014-Jul-26 04:33N 52°26' E 004°01'0 0.0
2014-Jul-26 03:33N 52°26' E 004°01'0 0.0
2014-Jul-26 02:24N 52°26' E 004°01'0 0.0
2014-Jul-26 01:33N 52°26' E 004°01'0 0.1
2014-Jul-26 00:24N 52°26' E 004°01'0 0.0
2014-Jul-25 23:27N 52°26' E 004°01'0 0.0
2014-Jul-25 22:33N 52°26' E 004°01'0 0.0
2014-Jul-25 21:30N 52°26' E 004°01'0 0.0
2014-Jul-25 20:30N 52°26' E 004°01'0 0.1
2014-Jul-25 19:27N 52°26' E 004°01'0 0.0
2014-Jul-25 18:18N 52°26' E 004°01'0 0.1
2014-Jul-25 16:27N 52°26' E 004°01'0 0.0
2014-Jul-25 15:06N 52°26' E 004°01'0 0.0
2014-Jul-25 14:33N 52°26' E 004°01'0 0.0
2014-Jul-25 13:33N 52°26' E 004°01'0 0.1
2014-Jul-25 12:33N 52°26' E 004°01'0 0.0
2014-Jul-25 11:33N 52°26' E 004°01'0 0.0
2014-Jul-25 10:33N 52°26' E 004°01'0 0.0
2014-Jul-25 09:30N 52°26' E 004°01'0 0.0
2014-Jul-25 08:33N 52°26' E 004°01'0 0.0
2014-Jul-25 07:33N 52°26' E 004°01'4 3.9
2014-Jul-25 06:33N 52°27' E 004°08'7 7.2
2014-Jul-25 05:33N 52°34' E 004°06'1212.2
2014-Jul-25 04:33N 52°45' E 003°59'1110.7
2014-Jul-25 03:33N 52°56' E 003°59'1111.0
2014-Jul-25 02:33N 53°04' E 004°13'1411.8
2014-Jul-25 01:24N 53°14' E 004°28'1112.9
2014-Jul-25 00:33N 53°24' E 004°34'1312.9
2014-Jul-24 23:34N 53°31' E 004°52'1413.9
2014-Jul-24 22:34N 53°36' E 005°14'1413.6
2014-Jul-24 21:33N 53°40' E 005°35'1312.5
2014-Jul-24 20:33N 53°44' E 005°55'1211.9
2014-Jul-24 19:33N 53°48' E 006°15'1211.5
2014-Jul-24 18:33N 53°51' E 006°33'1211.7
2014-Jul-24 17:33N 53°54' E 006°52'1212.3
2014-Jul-24 16:33N 53°58' E 007°13'1313.2
2014-Jul-24 15:33N 54°01' E 007°34'1312.7
2014-Jul-24 14:33N 54°01' E 007°56'1111.4
2014-Jul-24 13:34N 54°03' E 008°15'1312.7
2014-Jul-24 12:33N 54°16' E 008°22'1111.5
2014-Jul-24 11:33N 54°25' E 008°33'17 2.2
2014-Jul-24 03:32N 54°28' E 009°02'0 0.0
2014-Jul-24 02:29N 54°28' E 009°02'0 0.0
2014-Jul-23 06:32N 54°28' E 009°02'0 0.0
2014-Jul-23 05:32N 54°28' E 009°02'0 0.0
2014-Jul-23 04:29N 54°28' E 009°02'0 0.0
2014-Jul-23 03:32N 54°28' E 009°02'0 0.0
2014-Jul-23 02:29N 54°28' E 009°02'0 0.0
2014-Jul-23 01:32N 54°28' E 009°02'0 0.0
2014-Jul-23 00:23N 54°28' E 009°02'0 0.0
2014-Jul-22 05:26N 54°28' E 009°02'0 0.0
2014-Jul-22 04:32N 54°28' E 009°02'0 0.0
2014-Jul-20 22:32N 54°28' E 009°02'0 0.0
2014-Jul-20 20:23N 54°28' E 009°02'0 0.0
2014-Jul-20 07:29N 54°28' E 009°02'0 0.0
2014-Jul-20 06:32N 54°28' E 009°02'0 0.0
2014-Jul-20 05:32N 54°28' E 009°02'0 0.0
2014-Jul-20 04:32N 54°28' E 009°02'0 0.0
2014-Jul-20 03:32N 54°28' E 009°02'0 0.0
2014-Jul-20 02:32N 54°28' E 009°02'  
Track history (hours):
 
Tides and Currents Weather Stations Pressure Air Temp Water Temp Dewpoint Dewpoint Depression Visibility Wind Speed Wind Dir Waves Ship Positions

Wilson Clyde

Last reported at 2014-Jul-30 02:08 UTC. Time now 2014-Jul-30 02:57 UTC.
Position N 54°13' E 009°35'.

Length 100 m; draft 6 m.

Type: Ship. MMSI: 314187000.

Date/timePositionNaut miles runAvg speedWind from/ knotsBaromVisibWave heightAir tempDewpointWater temp
2014-Jul-30 02:08N 54°13' E 009°35'5 8.7
2014-Jul-30 01:33N 54°10' E 009°27'8 7.8
2014-Jul-30 00:33N 54°04' E 009°19'6 6.3
2014-Jul-29 23:34N 53°58' E 009°16'6 6.4
2014-Jul-29 22:33N 53°54' E 009°09'2 1.8
2014-Jul-29 21:33N 53°53' E 009°06'8 7.7
2014-Jul-29 20:33N 53°50' E 008°53'8 7.6
2014-Jul-29 19:33N 53°54' E 008°42'8 8.0
2014-Jul-29 18:33N 53°58' E 008°30'9 8.8
2014-Jul-29 17:33N 53°60' E 008°16'8 8.5
2014-Jul-29 16:33N 53°58' E 008°01'11 9.4
2014-Jul-29 15:26N 53°56' E 007°44'6010.1
2014-Jul-29 09:32N 53°41' E 006°06'1111.5
2014-Jul-29 08:33N 53°37' E 005°48'1111.5
2014-Jul-29 07:33N 53°34' E 005°29'10 9.8
2014-Jul-29 06:33N 53°31' E 005°14'1010.3
2014-Jul-29 05:33N 53°27' E 004°58'1110.1
2014-Jul-29 04:31N 53°22' E 004°42'4010.0
2014-Jul-29 00:29N 52°45' E 004°15'9 9.8
2014-Jul-28 23:33N 52°36' E 004°20'9 9.5
2014-Jul-28 22:33N 52°28' E 004°28'5 5.2
2014-Jul-28 21:34N 52°28' E 004°37'7 6.7
2014-Jul-28 20:33N 52°25' E 004°46'1 0.7
2014-Jul-28 19:31N 52°24' E 004°47'0 0.0
2014-Jul-28 18:28N 52°24' E 004°47'0 0.0
2014-Jul-28 17:31N 52°24' E 004°47'0 0.0
2014-Jul-28 16:28N 52°24' E 004°47'0 0.0
2014-Jul-28 15:31N 52°24' E 004°47'0 0.0
2014-Jul-28 14:31N 52°24' E 004°47'0 0.0
2014-Jul-28 13:28N 52°24' E 004°47'0 0.0
2014-Jul-28 12:28N 52°24' E 004°47'0 0.0
2014-Jul-28 11:31N 52°24' E 004°47'0 0.0
2014-Jul-28 10:31N 52°24' E 004°47'0 0.0
2014-Jul-28 09:28N 52°24' E 004°47'0 0.0
2014-Jul-28 08:28N 52°24' E 004°47'0 0.0
2014-Jul-28 07:31N 52°24' E 004°47'0 0.0
2014-Jul-28 06:31N 52°24' E 004°47'0 0.0
2014-Jul-28 05:31N 52°24' E 004°47'0 0.0
2014-Jul-28 04:31N 52°24' E 004°47'0 0.0
2014-Jul-28 03:28N 52°24' E 004°47'0 0.0
2014-Jul-28 02:28N 52°24' E 004°47'0 0.0
2014-Jul-28 01:31N 52°24' E 004°47'0 0.0
2014-Jul-28 00:31N 52°24' E 004°47'0 0.0
2014-Jul-27 23:31N 52°24' E 004°47'0 0.0
2014-Jul-27 22:31N 52°24' E 004°47'0 0.0
2014-Jul-27 21:31N 52°24' E 004°47'0 0.0
2014-Jul-27 20:28N 52°24' E 004°47'0 0.0
2014-Jul-27 19:31N 52°24' E 004°47'0 0.0
2014-Jul-27 18:31N 52°24' E 004°47'0 0.0
2014-Jul-27 17:25N 52°24' E 004°47'0 0.0
2014-Jul-27 16:28N 52°24' E 004°47'0 0.0
2014-Jul-27 15:31N 52°24' E 004°47'0 0.0
2014-Jul-27 14:31N 52°24' E 004°47'0 0.0
2014-Jul-27 13:31N 52°24' E 004°47'0 0.0
2014-Jul-27 12:31N 52°24' E 004°47'0 0.0
2014-Jul-27 11:31N 52°24' E 004°47'0 0.0
2014-Jul-27 10:28N 52°24' E 004°47'0 0.0
2014-Jul-27 09:28N 52°24' E 004°47'0 0.0
2014-Jul-27 08:31N 52°24' E 004°47'0 0.0
2014-Jul-27 07:31N 52°24' E 004°47'0 0.0
2014-Jul-27 06:31N 52°24' E 004°47'0 0.0
2014-Jul-27 05:31N 52°24' E 004°47'0 0.0
2014-Jul-27 04:31N 52°24' E 004°47'0 0.0
2014-Jul-27 03:28N 52°24' E 004°47'0 0.0
2014-Jul-27 02:31N 52°24' E 004°47'0 0.0
2014-Jul-27 01:31N 52°24' E 004°47'0 0.0
2014-Jul-27 00:25N 52°24' E 004°47'0 0.0
2014-Jul-26 23:31N 52°24' E 004°47'0 0.0
2014-Jul-26 22:31N 52°24' E 004°47'0 0.0
2014-Jul-26 21:28N 52°24' E 004°47'0 0.0
2014-Jul-26 20:28N 52°24' E 004°47'0 0.0
2014-Jul-26 19:31N 52°24' E 004°47'0 0.0
2014-Jul-26 18:28N 52°24' E 004°47'0 0.0
2014-Jul-26 17:31N 52°24' E 004°47'0 0.0
2014-Jul-26 16:28N 52°24' E 004°47'0 0.0
2014-Jul-26 15:31N 52°24' E 004°47'0 0.0
2014-Jul-26 14:31N 52°24' E 004°47'0 0.0
2014-Jul-26 13:31N 52°24' E 004°47'0 0.0
2014-Jul-26 12:31N 52°24' E 004°47'0 0.3
2014-Jul-26 11:33N 52°24' E 004°47'7 7.4
2014-Jul-26 10:34N 52°28' E 004°36'7 6.7
2014-Jul-26 09:34N 52°28' E 004°25'1111.0
2014-Jul-26 08:34N 52°27' E 004°07'3 1.6
2014-Jul-26 06:21N 52°26' E 004°01'0 0.0
2014-Jul-26 05:03N 52°26' E 004°01'0 0.0
2014-Jul-26 04:33N 52°26' E 004°01'0 0.0
2014-Jul-26 03:33N 52°26' E 004°01'0 0.0
2014-Jul-26 02:24N 52°26' E 004°01'0 0.0
2014-Jul-26 01:33N 52°26' E 004°01'0 0.1
2014-Jul-26 00:24N 52°26' E 004°01'0 0.0
2014-Jul-25 23:27N 52°26' E 004°01'0 0.0
2014-Jul-25 22:33N 52°26' E 004°01'0 0.0
2014-Jul-25 21:30N 52°26' E 004°01'0 0.0
2014-Jul-25 20:30N 52°26' E 004°01'0 0.1
2014-Jul-25 19:27N 52°26' E 004°01'0 0.0
2014-Jul-25 18:18N 52°26' E 004°01'0 0.1
2014-Jul-25 16:27N 52°26' E 004°01'0 0.0
2014-Jul-25 15:06N 52°26' E 004°01'0 0.0
2014-Jul-25 14:33N 52°26' E 004°01'0 0.0
2014-Jul-25 13:33N 52°26' E 004°01'0 0.1
2014-Jul-25 12:33N 52°26' E 004°01'0 0.0
2014-Jul-25 11:33N 52°26' E 004°01'0 0.0
2014-Jul-25 10:33N 52°26' E 004°01'0 0.0
2014-Jul-25 09:30N 52°26' E 004°01'0 0.0
2014-Jul-25 08:33N 52°26' E 004°01'0 0.0
2014-Jul-25 07:33N 52°26' E 004°01'4 3.9
2014-Jul-25 06:33N 52°27' E 004°08'7 7.2
2014-Jul-25 05:33N 52°34' E 004°06'1212.2
2014-Jul-25 04:33N 52°45' E 003°59'1110.7
2014-Jul-25 03:33N 52°56' E 003°59'1111.0
2014-Jul-25 02:33N 53°04' E 004°13'1411.8
2014-Jul-25 01:24N 53°14' E 004°28'1112.9
2014-Jul-25 00:33N 53°24' E 004°34'1312.9
2014-Jul-24 23:34N 53°31' E 004°52'1413.9
2014-Jul-24 22:34N 53°36' E 005°14'1413.6
2014-Jul-24 21:33N 53°40' E 005°35'1312.5
2014-Jul-24 20:33N 53°44' E 005°55'1211.9
2014-Jul-24 19:33N 53°48' E 006°15'1211.5
2014-Jul-24 18:33N 53°51' E 006°33'1211.7
2014-Jul-24 17:33N 53°54' E 006°52'1212.3
2014-Jul-24 16:33N 53°58' E 007°13'1313.2
2014-Jul-24 15:33N 54°01' E 007°34'1312.7
2014-Jul-24 14:33N 54°01' E 007°56'1111.4
2014-Jul-24 13:34N 54°03' E 008°15'1312.7
2014-Jul-24 12:33N 54°16' E 008°22'1111.5
2014-Jul-24 11:33N 54°25' E 008°33'17 2.2
2014-Jul-24 03:32N 54°28' E 009°02'0 0.0
2014-Jul-24 02:29N 54°28' E 009°02'0 0.0
2014-Jul-23 06:32N 54°28' E 009°02'0 0.0
2014-Jul-23 05:32N 54°28' E 009°02'0 0.0
2014-Jul-23 04:29N 54°28' E 009°02'0 0.0
2014-Jul-23 03:32N 54°28' E 009°02'0 0.0
2014-Jul-23 02:29N 54°28' E 009°02'0 0.0
2014-Jul-23 01:32N 54°28' E 009°02'0 0.0
2014-Jul-23 00:23N 54°28' E 009°02'0 0.0
2014-Jul-22 05:26N 54°28' E 009°02'0 0.0
2014-Jul-22 04:32N 54°28' E 009°02'0 0.0
2014-Jul-20 22:32N 54°28' E 009°02'0 0.0
2014-Jul-20 20:23N 54°28' E 009°02'0 0.0
2014-Jul-20 07:29N 54°28' E 009°02'0 0.0
2014-Jul-20 06:32N 54°28' E 009°02'0 0.0
2014-Jul-20 05:32N 54°28' E 009°02'0 0.0
2014-Jul-20 04:32N 54°28' E 009°02'0 0.0
2014-Jul-20 03:32N 54°28' E 009°02'0 0.0
2014-Jul-20 02:32N 54°28' E 009°02'  

Dump ship's entire track history